Time;durP1;ratioP1;P1;durP2;ratioP2;P2;SDS_P1;SDS_P2;PMS_P1;PMS_P2;Temp;Humidity;BMP_temperature;BMP_pressure;BME280_temperature;BME280_humidity;BME280_pressure;Samples;Min_cycle;Max_cycle;Signal;HPM_P1;HPM_P2
2021/07/29 00:00:08;;;;;;;0.10;0.10;;;;;;;18.07;60.70;100943.50;5057757;28;20025;-86
2021/07/29 00:02:35;;;;;;;0.10;0.10;;;;;;;17.79;61.56;100926.03;5058605;28;20071;-89
2021/07/29 00:05:01;;;;;;;0.10;0.10;;;;;;;17.78;61.17;100930.53;5058180;28;20468;-88
2021/07/29 00:07:28;;;;;;;0.10;0.10;;;;;;;17.53;61.71;100925.47;5057876;28;20029;-87
2021/07/29 00:09:57;;;;;;;0.13;0.13;;;;;;;17.26;62.70;100916.97;5056166;28;20020;-88
2021/07/29 00:12:26;;;;;;;0.10;0.10;;;;;;;17.09;63.19;100918.59;5057661;28;20052;-88
2021/07/29 00:14:55;;;;;;;0.20;0.20;;;;;;;17.15;64.14;100909.44;5044321;28;20120;-88
2021/07/29 00:20:09;;;;;;;0.10;0.10;;;;;;;17.05;63.81;100909.00;5045370;28;20365;-89
2021/07/29 00:22:35;;;;;;;0.10;0.10;;;;;;;17.17;63.51;100898.66;5045359;28;20071;-87
2021/07/29 00:25:06;;;;;;;0.10;0.10;;;;;;;17.16;63.87;100896.91;5043274;28;20037;-89
2021/07/29 00:27:34;;;;;;;0.10;0.10;;;;;;;17.17;64.76;100891.50;5045450;28;20040;-87
2021/07/29 00:30:01;;;;;;;0.10;0.10;;;;;;;17.08;65.92;100892.78;5042243;28;20476;-89
2021/07/29 00:32:27;;;;;;;0.10;0.10;;;;;;;17.22;64.42;100893.94;5046538;28;20037;-87
2021/07/29 00:34:54;;;;;;;0.20;0.20;;;;;;;17.18;65.66;100887.00;5048659;28;20029;-88
2021/07/29 00:37:20;;;;;;;0.10;0.10;;;;;;;17.25;65.56;100888.44;5043283;28;20032;-87
2021/07/29 00:39:47;;;;;;;0.10;0.10;;;;;;;17.28;65.16;100883.81;5045125;28;20021;-88
2021/07/29 00:42:13;;;;;;;0.20;0.20;;;;;;;17.32;65.85;100878.31;5043565;28;20056;-88
2021/07/29 00:44:40;;;;;;;0.10;0.10;;;;;;;17.33;65.90;100878.22;5043050;28;20488;-88
2021/07/29 00:47:07;;;;;;;0.10;0.10;;;;;;;17.31;67.05;100877.47;5044523;28;20476;-89
2021/07/29 00:49:35;;;;;;;0.10;0.10;;;;;;;17.42;66.44;100879.59;5041286;28;20021;-88
2021/07/29 00:52:02;;;;;;;0.10;0.10;;;;;;;17.38;66.61;100872.66;5044759;28;20025;-88
2021/07/29 00:54:30;;;;;;;0.10;0.10;;;;;;;17.51;66.77;100870.25;5047120;28;20392;-88
2021/07/29 00:57:09;;;;;;;0.10;0.10;;;;;;;17.52;67.20;100866.63;5045340;28;20361;-89
2021/07/29 00:59:38;;;;;;;0.10;0.10;;;;;;;17.37;66.88;100869.13;5044536;28;20021;-88
2021/07/29 01:02:08;;;;;;;0.10;0.10;;;;;;;17.31;67.27;100866.75;5042898;28;20045;-89
2021/07/29 01:04:34;;;;;;;4.28;2.95;;;;;;;17.40;66.89;100870.78;5047374;28;20427;-89
2021/07/29 01:07:02;;;;;;;0.08;0.08;;;;;;;17.43;66.60;100871.50;5045493;28;20033;-89
2021/07/29 01:09:29;;;;;;;0.98;0.55;;;;;;;17.49;66.85;100872.16;5046469;28;20491;-90
2021/07/29 01:11:56;;;;;;;0.10;0.10;;;;;;;17.38;67.36;100870.84;5046382;28;20033;-89
2021/07/29 01:14:25;;;;;;;0.10;0.10;;;;;;;17.50;66.64;100876.56;5047378;28;20062;-91
2021/07/29 01:16:52;;;;;;;0.10;0.10;;;;;;;17.31;67.73;100877.47;5045822;28;20036;-90
2021/07/29 01:19:23;;;;;;;7.13;2.50;;;;;;;17.63;67.02;100872.31;5041593;28;20531;-90
2021/07/29 01:21:49;;;;;;;0.10;0.10;;;;;;;17.58;67.41;100877.03;5042241;28;20484;-91
2021/07/29 01:24:19;;;;;;;0.60;0.60;;;;;;;17.61;67.39;100869.72;5041991;28;20041;-90
2021/07/29 01:26:46;;;;;;;0.45;0.45;;;;;;;17.55;68.42;100887.94;5043642;28;20494;-89
2021/07/29 01:29:20;;;;;;;0.77;0.77;;;;;;;17.47;69.12;100872.22;5044747;28;20483;-88
2021/07/29 01:31:47;;;;;;;0.20;0.20;;;;;;;17.46;68.93;100871.34;5044303;28;20148;-89
2021/07/29 01:34:16;;;;;;;0.10;0.10;;;;;;;17.38;69.69;100884.22;5043389;28;20502;-89
2021/07/29 01:36:43;;;;;;;0.10;0.10;;;;;;;17.56;68.63;100876.28;5045205;28;20040;-89
2021/07/29 01:39:10;;;;;;;0.10;0.10;;;;;;;17.55;69.34;100863.81;5044233;28;20384;-89
2021/07/29 01:41:36;;;;;;;0.20;0.20;;;;;;;17.52;69.45;100861.28;5043025;28;20032;-89
2021/07/29 01:44:06;;;;;;;0.30;0.30;;;;;;;17.64;69.12;100858.00;5044768;28;20028;-90
2021/07/29 01:46:32;;;;;;;0.10;0.10;;;;;;;17.50;69.73;100860.50;5046175;28;20419;-91
2021/07/29 01:48:59;;;;;;;0.57;0.57;;;;;;;17.52;69.67;100853.22;5042782;28;20028;-90
2021/07/29 01:51:25;;;;;;;0.10;0.10;;;;;;;17.56;69.36;100885.16;5044109;28;20695;-91
2021/07/29 01:53:52;;;;;;;0.45;0.45;;;;;;;17.62;69.11;100897.41;5044727;28;20029;-90
2021/07/29 01:56:21;;;;;;;0.10;0.10;;;;;;;17.83;68.97;100891.91;5044386;28;20334;-91
2021/07/29 01:58:53;;;;;;;0.10;0.10;;;;;;;17.44;68.79;100905.38;5045131;28;20048;-91
2021/07/29 02:01:24;;;;;;;;;;;;;;;17.61;67.72;100895.66;5045243;28;20029;-91
2021/07/29 02:03:53;;;;;;;0.10;0.10;;;;;;;17.52;67.95;100901.44;5044214;28;19920;-92
2021/07/29 02:06:22;;;;;;;0.38;0.38;;;;;;;17.34;67.46;100893.34;5045325;28;20029;-90
2021/07/29 02:08:48;;;;;;;0.30;0.30;;;;;;;17.45;67.26;100890.19;5035115;28;20025;-90
2021/07/29 02:11:15;;;;;;;0.08;0.08;;;;;;;17.49;67.24;100888.22;5032300;28;20083;-90
2021/07/29 02:13:42;;;;;;;0.30;0.30;;;;;;;17.39;67.16;100891.31;5033054;28;20493;-90
2021/07/29 02:16:16;;;;;;;0.10;0.10;;;;;;;17.24;67.27;100892.06;5034046;28;20017;-90
2021/07/29 02:18:46;;;;;;;0.30;0.30;;;;;;;17.18;66.90;100895.03;5030934;28;20030;-91
2021/07/29 02:21:15;;;;;;;0.10;0.10;;;;;;;17.19;66.79;100904.81;5033200;28;20044;-90
2021/07/29 02:23:41;;;;;;;0.10;0.10;;;;;;;17.19;66.61;100905.66;5032404;28;20033;-90
2021/07/29 02:26:23;;;;;;;0.10;0.10;;;;;;;17.20;66.53;100909.22;5032868;28;20026;-90
2021/07/29 02:28:50;;;;;;;0.10;0.10;;;;;;;17.01;66.81;100907.41;5031988;28;20481;-90
2021/07/29 02:31:17;;;;;;;0.10;0.10;;;;;;;16.98;66.55;100902.16;5032140;28;20041;-88
2021/07/29 02:33:43;;;;;;;0.10;0.10;;;;;;;17.03;66.61;100904.66;5031970;28;20059;-91
2021/07/29 02:36:14;;;;;;;0.68;0.68;;;;;;;16.92;66.62;100900.66;5032064;28;20111;-91
2021/07/29 02:38:41;;;;;;;0.10;0.10;;;;;;;16.91;66.95;100901.59;5031711;28;20491;-90
2021/07/29 02:41:07;;;;;;;0.10;0.10;;;;;;;16.87;67.30;100896.41;5031838;28;20119;-89
2021/07/29 02:43:34;;;;;;;0.10;0.10;;;;;;;16.87;67.55;100897.25;5030458;28;20025;-91
2021/07/29 02:46:00;;;;;;;0.20;0.20;;;;;;;16.84;67.29;100907.28;5025767;28;20039;-90
2021/07/29 02:48:34;;;;;;;0.10;0.10;;;;;;;16.76;67.24;100907.59;5032553;28;20021;-90
2021/07/29 02:51:03;;;;;;;0.10;0.10;;;;;;;16.79;67.16;100905.66;5030457;28;20025;-89
2021/07/29 02:53:33;;;;;;;1.20;1.13;;;;;;;16.74;67.70;100905.00;5031606;28;20067;-90
2021/07/29 02:56:03;;;;;;;0.00;0.00;;;;;;;16.69;67.58;100909.69;5031134;28;20063;-90
2021/07/29 02:58:52;;;;;;;0.10;0.10;;;;;;;16.75;67.58;100912.09;5029127;28;20022;-92
2021/07/29 03:01:21;;;;;;;0.10;0.10;;;;;;;16.64;67.60;100911.69;5029889;28;20064;-89
2021/07/29 03:03:48;;;;;;;0.10;0.10;;;;;;;16.61;67.78;100909.16;5039369;28;20033;-90
2021/07/29 03:06:17;;;;;;;0.10;0.10;;;;;;;16.63;68.23;100907.28;5048812;28;20032;-90
2021/07/29 03:08:50;;;;;;;0.10;0.10;;;;;;;16.75;67.82;100917.44;5032203;28;20029;-90
2021/07/29 03:11:25;;;;;;;0.55;0.55;;;;;;;16.84;68.14;100918.84;5042529;28;20119;-92
2021/07/29 03:13:51;;;;;;;0.10;0.10;;;;;;;16.85;68.44;100911.66;5035723;28;20049;-90
2021/07/29 03:16:18;;;;;;;0.10;0.10;;;;;;;16.87;68.06;100918.69;5048497;28;20033;-90
2021/07/29 03:18:44;;;;;;;0.10;0.10;;;;;;;16.93;68.24;100913.06;5033102;28;20520;-90
2021/07/29 03:21:11;;;;;;;0.10;0.10;;;;;;;16.95;68.22;100913.03;5016297;28;20034;-90
2021/07/29 03:23:37;;;;;;;0.10;0.10;;;;;;;17.00;68.33;100918.16;5031473;28;20192;-90
2021/07/29 03:26:05;;;;;;;0.10;0.10;;;;;;;16.96;68.23;100904.06;5032409;28;20087;-90
2021/07/29 03:28:34;;;;;;;0.10;0.10;;;;;;;16.94;67.84;100911.28;5048333;28;20084;-91
2021/07/29 03:31:15;;;;;;;0.10;0.10;;;;;;;16.91;68.13;100914.06;5040335;28;20029;-91
2021/07/29 03:33:56;;;;;;;0.10;0.10;;;;;;;16.92;67.34;100913.16;5038241;28;20072;-90
2021/07/29 03:36:44;;;;;;;0.10;0.10;;;;;;;16.86;67.62;100918.75;5048767;28;20077;-90
2021/07/29 03:39:12;;;;;;;0.13;0.13;;;;;;;16.82;67.30;100913.56;5041556;28;20124;-91
2021/07/29 03:41:40;;;;;;;0.10;0.10;;;;;;;16.72;67.56;100916.69;5038075;28;20033;-91
2021/07/29 03:44:09;;;;;;;0.10;0.10;;;;;;;16.75;67.55;100921.94;5027935;28;20022;-93
2021/07/29 03:46:43;;;;;;;0.10;0.10;;;;;;;16.73;67.91;100930.00;5047136;28;20554;-90
2021/07/29 03:49:14;;;;;;;0.10;0.10;;;;;;;16.63;68.79;100918.84;5040557;28;20040;-91
2021/07/29 03:51:40;;;;;;;0.73;0.73;;;;;;;16.75;68.45;100920.13;5042585;28;20033;-91
2021/07/29 03:54:07;;;;;;;0.10;0.10;;;;;;;16.72;68.79;100917.56;5036257;28;20484;-90
2021/07/29 03:56:36;;;;;;;0.10;0.10;;;;;;;16.75;69.10;100920.13;5051421;28;20025;-92
2021/07/29 03:59:07;;;;;;;0.10;0.10;;;;;;;16.85;68.97;100925.94;5043987;28;20028;-92
2021/07/29 04:01:41;;;;;;;3.33;1.75;;;;;;;16.72;69.95;100917.56;5041170;28;20506;-92
2021/07/29 04:04:07;;;;;;;0.60;0.60;;;;;;;16.80;69.45;100923.44;5031877;28;20060;-91
2021/07/29 04:06:33;;;;;;;0.10;0.10;;;;;;;16.91;69.60;100922.09;5050798;28;20045;-91
2021/07/29 04:08:59;;;;;;;0.20;0.20;;;;;;;16.81;69.84;100930.53;5035122;28;20022;-92
2021/07/29 04:11:26;;;;;;;0.10;0.10;;;;;;;16.85;70.10;100927.72;5047103;28;20060;-90
2021/07/29 04:13:52;;;;;;;5.57;0.90;;;;;;;16.92;69.90;100934.56;5040564;28;20127;-92
2021/07/29 04:16:30;;;;;;;0.95;0.95;;;;;;;16.90;70.14;100936.44;5051582;28;20032;-91
2021/07/29 04:18:57;;;;;;;1.33;1.27;;;;;;;16.93;69.94;100933.63;5042461;28;20033;-92
2021/07/29 04:21:26;;;;;;;0.93;0.93;;;;;;;17.03;69.85;100932.28;5043441;28;20049;-93
2021/07/29 04:23:52;;;;;;;0.10;0.10;;;;;;;16.99;69.32;100941.38;5040396;28;20091;-91
2021/07/29 04:26:21;;;;;;;0.10;0.10;;;;;;;17.08;68.99;100940.09;5034833;28;20057;-92
2021/07/29 04:28:48;;;;;;;1.15;1.08;;;;;;;17.00;69.33;100944.91;5041505;28;20078;-91
2021/07/29 04:31:14;;;;;;;0.20;0.20;;;;;;;16.92;69.56;100935.47;5045052;28;20044;-90
2021/07/29 04:33:43;;;;;;;0.10;0.10;;;;;;;16.93;69.62;100944.34;5034798;28;20376;-91
2021/07/29 04:36:14;;;;;;;0.10;0.10;;;;;;;16.83;70.36;100943.84;5051030;28;20090;-90
2021/07/29 04:38:42;;;;;;;0.20;0.20;;;;;;;16.99;69.19;100949.41;5039909;28;20116;-93
2021/07/29 04:41:08;;;;;;;0.30;0.30;;;;;;;16.95;69.53;100951.34;5045637;28;20033;-91
2021/07/29 04:43:38;;;;;;;1.15;1.15;;;;;;;16.90;70.19;100952.50;5047358;28;20025;-91
2021/07/29 04:46:04;;;;;;;0.95;0.95;;;;;;;16.80;70.14;100950.19;5037984;28;20034;-91
2021/07/29 04:48:31;;;;;;;0.73;0.73;;;;;;;16.90;69.96;100948.00;5034311;28;20030;-90
2021/07/29 04:51:09;;;;;;;0.10;0.10;;;;;;;16.94;69.84;100948.75;5038287;28;20036;-92
2021/07/29 04:53:44;;;;;;;0.10;0.10;;;;;;;16.89;70.80;100953.41;5041480;28;20132;-91
2021/07/29 04:56:13;;;;;;;0.10;0.10;;;;;;;16.94;70.41;100948.75;5035455;28;20075;-91
2021/07/29 04:58:49;;;;;;;;;;;;;;;;;;;;;
2021/07/29 05:01:35;;;;;;;0.10;0.10;;;;;;;17.00;70.57;100947.59;5044640;28;20045;-90
2021/07/29 05:04:02;;;;;;;0.22;0.22;;;;;;;17.00;70.33;100942.25;5037842;28;20037;-91
2021/07/29 05:06:29;;;;;;;2.17;0.95;;;;;;;17.14;69.78;100940.69;5038282;28;20029;-90
2021/07/29 05:08:56;;;;;;;0.10;0.10;;;;;;;17.19;69.67;100947.66;5040984;28;20395;-90
2021/07/29 05:11:22;;;;;;;0.10;0.10;;;;;;;17.02;69.45;100946.59;5041623;28;20047;-90
2021/07/29 05:13:51;;;;;;;0.10;0.10;;;;;;;17.11;69.72;100948.88;5036281;28;20361;-90
2021/07/29 05:16:21;;;;;;;0.10;0.10;;;;;;;17.24;69.11;100946.47;5037925;28;20369;-92
2021/07/29 05:18:47;;;;;;;0.10;0.10;;;;;;;17.11;68.94;100956.91;5040300;28;20106;-91
2021/07/29 05:21:13;;;;;;;0.10;0.10;;;;;;;17.11;68.93;100953.34;5044580;28;20033;-89
2021/07/29 05:23:41;;;;;;;6.38;1.13;;;;;;;17.16;68.56;100955.81;5046610;28;20056;-91
2021/07/29 05:26:14;;;;;;;0.10;0.10;;;;;;;17.19;68.50;100953.84;5036356;28;20025;-91
2021/07/29 05:28:41;;;;;;;1.55;1.45;;;;;;;17.34;67.89;100952.28;5047580;28;20030;-91
2021/07/29 05:31:12;;;;;;;0.10;0.10;;;;;;;17.27;67.88;100950.81;5032922;28;20029;-91
2021/07/29 05:33:39;;;;;;;0.10;0.10;;;;;;;17.11;68.75;100954.22;5039274;28;20116;-91
2021/07/29 05:36:06;;;;;;;0.10;0.10;;;;;;;17.10;68.63;100960.50;5036197;28;20037;-91
2021/07/29 05:38:36;;;;;;;0.95;0.95;;;;;;;17.24;68.46;100962.53;5048528;28;20338;-90
2021/07/29 05:41:05;;;;;;;0.73;0.73;;;;;;;17.34;67.75;100964.81;5033044;28;20030;-91
2021/07/29 05:43:33;;;;;;;0.10;0.10;;;;;;;17.25;68.21;100968.78;5046441;28;20033;-90
2021/07/29 05:45:59;;;;;;;0.15;0.15;;;;;;;17.35;67.89;100972.75;5033748;28;20036;-91
2021/07/29 05:48:25;;;;;;;0.10;0.10;;;;;;;17.32;68.43;100970.25;5036702;28;20025;-89
2021/07/29 05:50:59;;;;;;;0.10;0.10;;;;;;;17.43;68.27;100972.41;5031466;28;20028;-91
2021/07/29 05:53:27;;;;;;;0.10;0.10;;;;;;;17.28;68.69;100968.63;5033485;28;20034;-91
2021/07/29 05:55:55;;;;;;;0.10;0.10;;;;;;;17.26;69.07;100975.88;5033246;28;20037;-90
2021/07/29 05:58:21;;;;;;;0.10;0.10;;;;;;;17.37;68.74;100973.56;5033548;28;20037;-90
2021/07/29 06:00:49;;;;;;;0.55;0.55;;;;;;;17.61;68.17;100976.03;5033368;28;20025;-93
2021/07/29 06:03:16;;;;;;;0.10;0.10;;;;;;;17.57;68.67;100979.78;5043780;28;20659;-93
2021/07/29 06:05:42;;;;;;;0.20;0.20;;;;;;;17.61;68.34;100976.03;5039684;28;20124;-92
2021/07/29 06:08:25;;;;;;;0.17;0.17;;;;;;;17.77;68.49;100974.34;5049703;28;20035;-93
2021/07/29 06:11:02;;;;;;;0.10;0.10;;;;;;;17.94;68.03;100983.41;5039529;28;20029;-90
2021/07/29 06:13:29;;;;;;;0.10;0.10;;;;;;;18.02;67.55;100986.59;5032094;28;20064;-90
2021/07/29 06:15:56;;;;;;;0.10;0.10;;;;;;;18.06;67.24;100985.50;5042037;28;20035;-91
2021/07/29 06:18:23;;;;;;;1.58;1.48;;;;;;;18.07;67.42;100989.94;5033299;28;20730;-91
2021/07/29 06:20:52;;;;;;;0.10;0.10;;;;;;;18.18;67.41;100985.84;5045687;28;20025;-92
2021/07/29 06:23:21;;;;;;;0.10;0.10;;;;;;;18.09;67.17;100987.16;5043389;28;20151;-90
2021/07/29 06:25:47;;;;;;;0.20;0.20;;;;;;;18.20;67.15;100994.69;5038605;28;20026;-92
2021/07/29 06:28:14;;;;;;;0.20;0.20;;;;;;;18.33;67.04;100990.44;5049267;28;20064;-91
2021/07/29 06:30:43;;;;;;;0.10;0.10;;;;;;;18.61;66.51;100980.13;5038205;28;20032;-91
2021/07/29 06:33:09;;;;;;;0.25;0.25;;;;;;;18.59;66.56;100977.50;5032513;28;20121;-94
2021/07/29 06:35:37;;;;;;;0.10;0.10;;;;;;;18.74;66.20;100987.47;5029007;28;20349;-92
2021/07/29 06:38:06;;;;;;;2.30;0.82;;;;;;;18.90;66.25;100994.69;5033145;28;20022;-93
2021/07/29 06:40:32;;;;;;;0.30;0.30;;;;;;;18.89;65.55;100992.94;5034311;28;20389;-90
2021/07/29 06:43:21;;;;;;;0.93;0.35;;;;;;;18.95;65.66;100984.59;5033366;28;20040;-94
2021/07/29 06:45:47;;;;;;;1.23;1.20;;;;;;;19.08;64.95;100987.53;5030944;28;20128;-92
2021/07/29 06:48:13;;;;;;;0.55;0.55;;;;;;;19.04;65.11;100996.69;5034303;28;20025;-92
2021/07/29 06:50:40;;;;;;;0.22;0.22;;;;;;;18.87;64.77;101002.94;5033142;28;20034;-92
2021/07/29 06:53:06;;;;;;;0.32;0.32;;;;;;;18.92;64.68;101004.44;5031496;28;20444;-91
2021/07/29 06:55:35;;;;;;;0.10;0.10;;;;;;;18.91;64.84;101002.69;5032150;28;20033;-93
2021/07/29 06:58:01;;;;;;;3.55;3.28;;;;;;;19.21;64.32;101001.16;5034471;28;20043;-93
2021/07/29 07:00:28;;;;;;;0.10;0.10;;;;;;;19.07;64.47;101012.66;5045744;28;20079;-94
2021/07/29 07:02:54;;;;;;;0.10;0.10;;;;;;;19.09;64.53;101016.13;5033137;28;20124;-91
2021/07/29 07:05:20;;;;;;;0.10;0.10;;;;;;;19.19;64.18;101017.38;5041460;28;20026;-91
2021/07/29 07:07:46;;;;;;;0.10;0.10;;;;;;;19.00;64.36;101012.09;5046473;28;20071;-91
2021/07/29 07:10:13;;;;;;;5.38;1.38;;;;;;;19.01;63.67;101019.19;5035603;28;20064;-88
2021/07/29 07:12:41;;;;;;;0.10;0.10;;;;;;;19.07;63.21;101013.50;5037771;28;20072;-91
2021/07/29 07:15:07;;;;;;;0.10;0.10;;;;;;;19.27;62.22;101008.88;5037268;28;20026;-88
2021/07/29 07:17:33;;;;;;;0.22;0.22;;;;;;;19.16;61.92;101016.66;5031057;28;20504;-88
2021/07/29 07:20:03;;;;;;;0.10;0.10;;;;;;;19.40;61.54;101044.91;5029295;28;20030;-89
2021/07/29 07:22:29;;;;;;;0.10;0.10;;;;;;;19.35;61.74;101038.91;5031752;28;20870;-87
2021/07/29 07:24:56;;;;;;;0.10;0.10;;;;;;;19.22;60.47;101027.06;5035369;28;20060;-88
2021/07/29 07:27:22;;;;;;;1.63;0.55;;;;;;;19.25;60.16;101043.00;5035408;28;20029;-88
2021/07/29 07:29:48;;;;;;;0.17;0.17;;;;;;;19.20;58.82;101040.59;5036637;28;20100;-88
2021/07/29 07:32:15;;;;;;;0.10;0.10;;;;;;;19.26;57.77;101066.25;5036278;28;20111;-88
2021/07/29 07:34:41;;;;;;;0.10;0.10;;;;;;;19.35;57.94;101043.38;5038357;28;20030;-88
2021/07/29 07:37:07;;;;;;;0.10;0.10;;;;;;;19.27;56.99;101045.63;5027119;28;20080;-88
2021/07/29 07:39:35;;;;;;;0.52;0.52;;;;;;;19.42;57.79;101054.69;5046835;28;20060;-90
2021/07/29 07:42:02;;;;;;;0.10;0.10;;;;;;;19.40;57.21;101055.63;5038368;28;20480;-86
2021/07/29 07:44:28;;;;;;;0.82;0.82;;;;;;;19.76;56.44;101042.94;5039356;28;20108;-86
2021/07/29 07:46:54;;;;;;;0.10;0.10;;;;;;;19.81;56.02;101050.75;5048724;28;20428;-85
2021/07/29 07:49:20;;;;;;;0.47;0.43;;;;;;;19.58;54.68;101055.59;5046720;28;20036;-87
2021/07/29 07:51:46;;;;;;;0.10;0.10;;;;;;;19.54;53.51;101046.81;5041439;28;20030;-88
2021/07/29 07:54:13;;;;;;;0.10;0.10;;;;;;;19.91;53.97;101062.75;5051941;28;20082;-88
2021/07/29 07:56:43;;;;;;;0.10;0.10;;;;;;;20.08;53.64;101058.28;5040889;28;20029;-87
2021/07/29 07:59:09;;;;;;;0.10;0.10;;;;;;;19.73;52.08;101062.81;5043753;28;20079;-89
2021/07/29 08:01:39;;;;;;;0.20;0.20;;;;;;;19.91;52.85;101052.00;5036317;28;20057;-87
2021/07/29 08:04:05;;;;;;;0.10;0.10;;;;;;;19.97;53.83;101057.03;5034264;28;20021;-87
2021/07/29 08:06:31;;;;;;;0.10;0.10;;;;;;;20.26;54.15;101059.03;5036199;28;20030;-88
2021/07/29 08:08:57;;;;;;;0.10;0.10;;;;;;;20.14;54.74;101060.63;5036352;28;20026;-88
2021/07/29 08:11:24;;;;;;;0.10;0.10;;;;;;;20.26;53.33;101061.72;5036343;28;20033;-91
2021/07/29 08:13:50;;;;;;;0.08;0.08;;;;;;;20.11;51.84;101063.47;5032271;28;20029;-89
2021/07/29 08:16:16;;;;;;;0.10;0.10;;;;;;;20.16;49.31;101075.72;5035675;28;20021;-89
2021/07/29 08:18:42;;;;;;;0.10;0.10;;;;;;;20.24;50.31;101053.75;5038839;28;20044;-90
2021/07/29 08:21:12;;;;;;;1.75;1.65;;;;;;;20.52;50.74;101062.91;5024383;28;20108;-83
2021/07/29 08:23:41;;;;;;;0.32;0.32;;;;;;;20.56;49.66;101063.59;5027369;28;20026;-91
2021/07/29 08:26:11;;;;;;;0.35;0.35;;;;;;;20.55;49.06;101069.94;5036448;28;20366;-92
2021/07/29 08:28:40;;;;;;;1.20;0.38;;;;;;;20.68;49.69;101073.66;5036561;28;20024;-92
2021/07/29 08:31:12;;;;;;;0.28;0.28;;;;;;;21.00;48.91;101066.38;5042975;28;20083;-92
2021/07/29 08:33:51;;;;;;;0.10;0.10;;;;;;;21.06;48.70;101066.94;5036779;28;20056;-93
2021/07/29 08:36:20;;;;;;;0.45;0.45;;;;;;;20.87;48.08;101080.66;5047699;28;20375;-86
2021/07/29 08:38:48;;;;;;;0.10;0.10;;;;;;;20.68;47.51;101068.25;5037480;28;20056;-86
2021/07/29 08:41:17;;;;;;;0.10;0.10;;;;;;;20.55;45.67;101073.50;5033072;28;20033;-89
2021/07/29 08:43:43;;;;;;;2.63;2.10;;;;;;;20.40;45.46;101069.00;5031303;28;20029;-94
2021/07/29 08:46:13;;;;;;;0.10;0.10;;;;;;;20.36;45.19;101071.00;5050352;28;20494;-93
2021/07/29 08:48:46;;;;;;;0.10;0.10;;;;;;;20.40;45.32;101075.28;5034374;28;20034;-88
2021/07/29 08:51:15;;;;;;;0.10;0.10;;;;;;;20.36;44.92;101079.06;5043961;28;20033;-84
2021/07/29 08:53:42;;;;;;;0.40;0.40;;;;;;;20.51;45.12;101091.66;5042533;28;20033;-84
2021/07/29 08:56:30;;;;;;;0.10;0.10;;;;;;;20.52;44.43;101088.03;5052362;28;20116;-88
2021/07/29 08:58:56;;;;;;;0.10;0.10;;;;;;;20.59;44.67;101080.44;5036811;28;20033;-90
2021/07/29 09:01:43;;;;;;;0.10;0.10;;;;;;;20.91;45.21;101077.72;5035208;28;20045;-90
2021/07/29 09:04:15;;;;;;;0.20;0.20;;;;;;;20.74;45.06;101085.94;5037093;28;20603;-86
2021/07/29 09:07:03;;;;;;;1.33;1.33;;;;;;;21.10;45.04;101077.47;5040601;28;20105;-84
2021/07/29 09:09:49;;;;;;;0.10;0.10;;;;;;;20.86;42.38;101098.66;5033492;28;20387;-88
2021/07/29 09:12:20;;;;;;;0.10;0.10;;;;;;;20.83;42.86;101112.28;5031392;28;20045;-88
2021/07/29 09:14:51;;;;;;;0.63;0.63;;;;;;;20.63;43.19;101091.91;5031999;28;20443;-88
2021/07/29 09:17:22;;;;;;;0.10;0.10;;;;;;;20.61;43.25;101085.72;5033936;28;20034;-89
2021/07/29 09:19:50;;;;;;;0.10;0.10;;;;;;;20.57;44.01;101103.88;5038668;28;20044;-91
2021/07/29 09:22:28;;;;;;;2.00;1.67;;;;;;;21.00;44.28;101084.38;5036527;28;20472;-86
2021/07/29 09:25:20;;;;;;;0.05;0.05;;;;;;;21.04;44.26;101074.28;5030541;28;20029;-92
2021/07/29 09:27:49;;;;;;;0.10;0.10;;;;;;;20.94;44.71;101085.59;5032706;28;20452;-87
2021/07/29 09:43:23;;;;;;;0.10;0.10;;;;;;;21.79;43.07;101090.34;5096536;27;20430;-91
2021/07/29 09:45:52;;;;;;;0.22;0.15;;;;;;;21.56;41.91;101092.66;5082654;28;20032;-92
2021/07/29 09:48:21;;;;;;;0.10;0.10;;;;;;;21.46;42.10;101080.69;5090479;28;20036;-91
2021/07/29 09:50:52;;;;;;;0.10;0.10;;;;;;;21.95;41.86;101083.00;5090123;28;20107;-86
2021/07/29 09:53:19;;;;;;;0.10;0.10;;;;;;;22.03;41.88;101098.72;5090212;28;20048;-88
2021/07/29 09:55:45;;;;;;;0.10;0.10;;;;;;;22.16;41.83;101096.06;5090510;28;20038;-83
2021/07/29 09:58:11;;;;;;;0.30;0.30;;;;;;;22.22;41.11;101106.47;5089179;28;20028;-86
2021/07/29 10:00:38;;;;;;;0.10;0.10;;;;;;;22.35;40.12;101089.47;5089097;28;20028;-85
2021/07/29 10:03:09;;;;;;;0.25;0.25;;;;;;;22.24;39.34;101082.94;5089123;28;20483;-90
2021/07/29 10:11:13;;;;;;;0.15;0.15;;;;;;;22.29;38.97;101091.59;5153192;27;20400;-86
2021/07/29 10:13:42;;;;;;;0.10;0.10;;;;;;;22.07;37.33;101099.34;5134027;27;20121;-87
2021/07/29 10:16:09;;;;;;;0.10;0.10;;;;;;;22.13;37.79;101107.03;5122615;28;20031;-87
2021/07/29 10:21:37;;;;;;;0.10;0.10;;;;;;;21.95;37.30;101109.97;5088364;27;20170;-89
2021/07/29 10:24:08;;;;;;;0.10;0.10;;;;;;;22.24;37.33;101093.75;5048022;28;20026;-88
2021/07/29 10:26:55;;;;;;;0.10;0.10;;;;;;;22.22;37.52;101106.47;5039959;28;20036;-87
2021/07/29 10:29:25;;;;;;;0.10;0.10;;;;;;;22.21;37.95;101120.91;5040883;28;20052;-87
2021/07/29 10:31:57;;;;;;;0.10;0.10;;;;;;;22.28;37.18;101100.66;5047837;28;20026;-85
2021/07/29 10:34:27;;;;;;;0.10;0.10;;;;;;;22.25;36.13;101100.84;5047726;28;20613;-86
2021/07/29 10:36:54;;;;;;;0.10;0.10;;;;;;;22.33;35.60;101104.88;5045699;28;20032;-86
2021/07/29 10:39:28;;;;;;;0.60;0.60;;;;;;;22.58;36.46;101113.16;5041475;28;20500;-90
2021/07/29 10:41:56;;;;;;;0.30;0.30;;;;;;;22.52;36.61;101102.75;5033822;28;20021;-91
2021/07/29 10:50:22;;;;;;;0.10;0.10;;;;;;;23.00;37.44;101104.06;5108781;27;20462;-85
2021/07/29 10:52:50;;;;;;;0.10;0.10;;;;;;;23.24;37.43;101104.25;5106804;28;20023;-86
2021/07/29 10:55:17;;;;;;;0.10;0.10;;;;;;;23.45;37.38;101107.28;5098187;28;20278;-87
2021/07/29 10:57:57;;;;;;;0.15;0.15;;;;;;;23.55;37.60;101100.28;5094610;28;20116;-86
2021/07/29 11:00:23;;;;;;;0.20;0.20;;;;;;;23.15;37.11;101113.81;5090257;28;20016;-86
2021/07/29 11:03:54;;;;;;;0.20;0.20;;;;;;;23.43;36.98;101118.22;5089746;28;20483;-95
2021/07/29 11:06:38;;;;;;;0.20;0.20;;;;;;;23.42;38.27;101118.31;5056839;28;20106;-91
2021/07/29 11:24:54;;;;;;;0.20;0.20;;;;;;;23.45;38.38;101107.28;5642279;22;15026586;-85
2021/07/29 11:28:09;;;;;;;0.10;0.10;;;;;;;23.30;39.20;101106.50;6315926;22;20438;-90
2021/07/29 11:34:30;;;;;;;0.10;0.10;;;;;;;23.37;39.05;101107.81;6329598;22;20467;-90
2021/07/29 11:37:53;;;;;;;0.10;0.10;;;;;;;23.38;39.46;101101.44;6220575;23;20016;-92
2021/07/29 11:40:24;;;;;;;0.63;0.63;;;;;;;23.14;39.28;101117.53;6215558;23;20017;-90
2021/07/29 11:42:51;;;;;;;0.10;0.10;;;;;;;23.10;39.79;101119.56;6239959;22;20007;-88
2021/07/29 11:48:21;;;;;;;0.10;0.10;;;;;;;23.60;40.62;101105.31;5073354;27;20419;-85
2021/07/29 11:50:48;;;;;;;2.20;0.40;;;;;;;23.85;40.62;101109.88;5065390;28;20534;-85
2021/07/29 11:53:15;;;;;;;0.10;0.10;;;;;;;23.90;40.47;101113.09;5064384;28;20100;-85
2021/07/29 11:55:52;;;;;;;0.20;0.20;;;;;;;24.06;40.63;101122.84;5057127;28;20032;-82
2021/07/29 11:58:18;;;;;;;0.10;0.10;;;;;;;24.08;41.01;101110.06;5057650;28;20040;-86
2021/07/29 12:00:46;;;;;;;0.10;0.10;;;;;;;24.35;40.06;101112.59;5059425;28;20098;-85
2021/07/29 12:03:31;;;;;;;2.40;1.95;;;;;;;24.45;40.31;101123.59;5057882;28;20029;-87
2021/07/29 12:05:59;;;;;;;0.45;0.32;;;;;;;24.33;40.90;101129.94;5048860;28;20365;-88
2021/07/29 12:08:28;;;;;;;1.90;0.50;;;;;;;24.34;38.93;101116.25;5056135;28;20423;-87
2021/07/29 12:10:56;;;;;;;0.10;0.10;;;;;;;24.53;40.16;101123.88;5052714;28;20082;-87
2021/07/29 12:13:23;;;;;;;0.10;0.10;;;;;;;24.33;40.54;101119.09;5057946;28;20058;-88
2021/07/29 12:15:51;;;;;;;0.20;0.20;;;;;;;23.91;41.47;101143.72;5046788;28;20410;-88
2021/07/29 12:18:19;;;;;;;0.52;0.52;;;;;;;23.62;41.44;101129.59;5044672;28;20036;-87
2021/07/29 12:20:48;;;;;;;0.22;0.22;;;;;;;23.49;39.88;101143.09;5049389;28;20029;-87
2021/07/29 12:23:16;;;;;;;0.10;0.10;;;;;;;23.41;40.34;101128.28;5047205;28;20071;-86
2021/07/29 12:25:44;;;;;;;0.15;0.15;;;;;;;23.56;40.65;101128.16;5045530;28;20474;-87
2021/07/29 12:28:13;;;;;;;0.10;0.10;;;;;;;23.26;41.09;101149.16;5049050;28;20032;-87
2021/07/29 12:33:23;;;;;;;0.10;0.10;;;;;;;23.41;39.87;101132.81;5071067;27;20869;-87